createdAt,value
2019-05-01T00:00:46.468Z,70.70
2019-05-01T00:03:32.225Z,70.60
2019-05-01T00:06:02.569Z,70.70
2019-05-01T00:08:31.342Z,71.20
2019-05-01T00:11:00.341Z,72.50
2019-05-01T00:13:29.236Z,72.10
2019-05-01T00:15:58.104Z,71.90
2019-05-01T00:18:26.967Z,72.00
2019-05-01T00:20:55.529Z,72.90
2019-05-01T00:23:24.369Z,72.70
2019-05-01T00:25:53.226Z,73.30
2019-05-01T00:28:22.171Z,73.10
2019-05-01T00:30:51.091Z,73.40
2019-05-01T00:33:19.851Z,73.30
2019-05-01T00:35:48.681Z,73.80
2019-05-01T00:38:17.357Z,73.40
2019-05-01T00:40:46.192Z,73.10
2019-05-01T00:43:14.765Z,73.30
2019-05-01T00:45:44.160Z,73.00
2019-05-01T00:48:12.844Z,73.30
2019-05-01T00:50:41.569Z,73.90
2019-05-01T00:53:10.404Z,73.80
2019-05-01T00:55:57.036Z,74.10
2019-05-01T00:58:42.767Z,74.10
2019-05-01T01:01:31.600Z,75.60
2019-05-01T01:04:00.602Z,75.20
2019-05-01T01:06:29.256Z,74.90
2019-05-01T01:08:58.218Z,75.30
2019-05-01T01:11:27.123Z,75.10
2019-05-01T01:13:56.005Z,76.10
2019-05-01T01:16:25.015Z,75.80
2019-05-01T01:18:53.923Z,75.80
2019-05-01T01:21:22.658Z,76.10
2019-05-01T01:23:51.600Z,76.00
2019-05-01T01:26:20.466Z,76.70
2019-05-01T01:28:49.455Z,76.60
2019-05-01T01:31:18.286Z,76.30
2019-05-01T01:33:47.150Z,76.10
2019-05-01T01:36:15.737Z,77.40
2019-05-01T01:38:44.616Z,77.70
2019-05-01T01:41:13.421Z,77.80
2019-05-01T01:43:43.957Z,78.20
2019-05-01T01:46:20.504Z,78.40
2019-05-01T01:48:49.362Z,78.90
2019-05-01T01:51:18.581Z,78.90
2019-05-01T01:53:47.647Z,79.00
2019-05-01T01:56:17.263Z,79.70
2019-05-01T01:58:46.823Z,79.70
2019-05-01T02:01:17.386Z,79.70
2019-05-01T02:03:59.690Z,79.70
2019-05-01T02:06:28.502Z,79.80
2019-05-01T02:08:57.552Z,79.40
2019-05-01T02:11:27.074Z,79.70
2019-05-01T02:13:56.852Z,80.30
2019-05-01T02:16:25.967Z,80.70
2019-05-01T02:18:54.688Z,81.00
2019-05-01T02:21:23.542Z,81.00
2019-05-01T02:23:52.334Z,80.50
2019-05-01T02:26:23.125Z,81.10
2019-05-01T02:28:56.673Z,81.10
2019-05-01T02:31:29.656Z,81.50
2019-05-01T02:34:00.063Z,81.40
2019-05-01T02:36:29.975Z,81.90
2019-05-01T02:38:59.786Z,83.80
2019-05-01T02:41:31.553Z,82.40
2019-05-01T02:44:03.404Z,82.40
2019-05-01T02:46:35.323Z,83.00
2019-05-01T02:49:12.741Z,82.70
2019-05-01T02:51:43.875Z,83.20
2019-05-01T02:54:14.668Z,83.50
2019-05-01T02:56:55.865Z,84.00
2019-05-01T02:59:26.708Z,84.50
2019-05-01T03:01:55.864Z,84.10
2019-05-01T03:04:47.115Z,84.10
2019-05-01T03:07:17.678Z,84.50
2019-05-01T03:09:47.356Z,83.90
2019-05-01T03:12:19.172Z,84.30
2019-05-01T03:14:50.302Z,84.30
2019-05-01T03:17:24.165Z,83.70
2019-05-01T03:19:58.024Z,84.50
2019-05-01T03:22:28.673Z,84.40
2019-05-01T03:24:57.623Z,84.60
2019-05-01T03:27:26.594Z,84.20
2019-05-01T03:29:56.027Z,84.30
2019-05-01T03:32:25.227Z,84.90
2019-05-01T03:34:54.532Z,84.50
2019-05-01T03:37:23.509Z,84.60
2019-05-01T03:39:53.196Z,84.50
2019-05-01T03:42:22.540Z,84.40
2019-05-01T03:44:51.392Z,84.70
2019-05-01T03:47:20.154Z,84.30
2019-05-01T03:49:49.192Z,85.10
2019-05-01T03:52:18.009Z,84.80
2019-05-01T03:54:46.886Z,85.10
2019-05-01T03:57:16.510Z,85.70
2019-05-01T03:59:46.275Z,85.60
2019-05-01T04:02:33.556Z,86.80
2019-05-01T04:04:56.552Z,85.50
2019-05-01T04:07:26.491Z,86.80
2019-05-01T04:09:56.085Z,85.90
2019-05-01T04:12:25.857Z,86.50
2019-05-01T04:14:55.540Z,86.70
2019-05-01T04:17:35.466Z,86.90
2019-05-01T04:20:05.310Z,86.10
2019-05-01T04:22:34.801Z,86.40
2019-05-01T04:25:04.292Z,87.00
2019-05-01T04:27:34.924Z,87.30
2019-05-01T04:30:05.971Z,87.00
2019-05-01T04:32:51.016Z,87.20
2019-05-01T04:35:20.334Z,88.10
2019-05-01T04:37:50.093Z,87.80
2019-05-01T04:40:20.270Z,87.60
2019-05-01T04:42:49.447Z,88.00
2019-05-01T04:45:19.124Z,88.60
2019-05-01T04:47:48.710Z,88.60
2019-05-01T04:50:17.800Z,89.00
2019-05-01T04:52:46.996Z,88.70
2019-05-01T04:55:17.053Z,89.20
2019-05-01T04:57:46.952Z,89.70
2019-05-01T05:00:16.456Z,89.40
2019-05-01T05:02:47.101Z,88.20
2019-05-01T05:05:16.703Z,88.80
2019-05-01T05:07:46.374Z,88.50
2019-05-01T05:10:15.551Z,88.40
2019-05-01T05:12:46.451Z,88.00
2019-05-01T05:15:20.013Z,88.20
2019-05-01T05:17:49.351Z,88.10
2019-05-01T05:20:18.719Z,88.00
2019-05-01T05:22:48.662Z,87.40
2019-05-01T05:25:17.783Z,87.30
2019-05-01T05:27:47.390Z,87.20
2019-05-01T05:30:16.682Z,86.50
2019-05-01T05:32:47.709Z,86.20
2019-05-01T05:35:18.719Z,86.70
2019-05-01T05:37:54.378Z,86.00
2019-05-01T05:40:24.161Z,85.30
2019-05-01T05:42:54.404Z,85.20
2019-05-01T05:45:23.824Z,85.50
2019-05-01T05:47:52.944Z,84.40
2019-05-01T05:50:23.947Z,84.40
2019-05-01T05:53:11.441Z,84.10
2019-05-01T05:55:45.363Z,83.40
2019-05-01T05:58:18.256Z,82.60
2019-05-01T06:00:53.934Z,82.30
2019-05-01T06:03:43.208Z,82.70
2019-05-01T06:06:16.917Z,82.40
2019-05-01T06:08:48.059Z,82.30
2019-05-01T06:11:33.817Z,81.90
2019-05-01T06:14:18.276Z,82.00
2019-05-01T06:16:55.486Z,82.20
2019-05-01T06:19:29.100Z,81.70
2019-05-01T06:22:16.831Z,81.70
2019-05-01T06:24:57.867Z,81.40
2019-05-01T06:27:27.755Z,81.60
2019-05-01T06:29:58.136Z,81.80
2019-05-01T06:32:28.790Z,81.80
2019-05-01T06:34:58.474Z,81.80
2019-05-01T06:38:00.207Z,81.20
2019-05-01T06:40:43.662Z,81.00
2019-05-01T06:43:25.225Z,80.70
2019-05-01T06:46:07.677Z,80.30
2019-05-01T06:48:38.555Z,79.80
2019-05-01T06:51:13.002Z,79.80
2019-05-01T06:53:41.313Z,79.10
2019-05-01T06:56:10.689Z,78.90
2019-05-01T06:58:39.693Z,78.40
2019-05-01T07:01:08.976Z,77.10
2019-05-01T07:03:40.851Z,77.20
2019-05-01T07:06:14.346Z,76.70
2019-05-01T07:08:39.744Z,75.50
2019-05-01T07:11:10.937Z,74.80
2019-05-01T07:13:41.517Z,73.50
2019-05-01T07:16:10.931Z,75.10
2019-05-01T07:18:40.090Z,74.00
2019-05-01T07:21:09.158Z,72.40
2019-05-01T07:23:38.642Z,71.70
2019-05-01T07:26:10.014Z,70.40
2019-05-01T07:28:40.142Z,68.70
2019-05-01T07:31:10.927Z,68.40
2019-05-01T07:33:40.140Z,67.40
2019-05-01T07:36:15.204Z,66.60
2019-05-01T07:38:44.299Z,67.90
2019-05-01T07:41:13.489Z,68.00
2019-05-01T07:43:44.891Z,68.90
2019-05-01T07:46:25.066Z,66.30
2019-05-01T07:48:54.386Z,67.40
2019-05-01T07:51:23.744Z,67.30
2019-05-01T07:53:53.192Z,65.50
2019-05-01T07:56:27.548Z,65.70
2019-05-01T07:58:53.908Z,65.00
2019-05-01T08:01:27.876Z,65.10
2019-05-01T08:03:57.251Z,64.10
2019-05-01T08:06:26.416Z,60.50
2019-05-01T08:08:55.612Z,62.20
2019-05-01T08:11:24.947Z,60.40
2019-05-01T08:14:06.590Z,59.00
2019-05-01T08:16:25.133Z,58.40
2019-05-01T08:19:05.895Z,58.00
2019-05-01T08:21:39.450Z,55.70
2019-05-01T08:24:08.830Z,55.30
2019-05-01T08:26:39.788Z,53.50
2019-05-01T08:29:19.153Z,51.50
2019-05-01T08:32:07.367Z,51.40
2019-05-01T08:34:48.475Z,50.30
2019-05-01T08:37:08.775Z,49.00
2019-05-01T08:39:39.606Z,47.80
2019-05-01T08:42:09.436Z,48.30
2019-05-01T08:44:59.928Z,47.50
2019-05-01T08:47:28.763Z,46.40
2019-05-01T08:49:59.223Z,46.20
2019-05-01T08:52:28.347Z,45.00
2019-05-01T08:54:57.610Z,44.00
2019-05-01T08:57:29.213Z,44.00
2019-05-01T09:00:00.265Z,44.20
2019-05-01T09:02:28.326Z,43.80
2019-05-01T09:05:02.618Z,42.80
2019-05-01T09:07:28.436Z,42.60
2019-05-01T09:09:57.352Z,41.00
2019-05-01T09:12:26.985Z,39.60
2019-05-01T09:14:56.231Z,40.90
2019-05-01T09:17:25.589Z,40.30
2019-05-01T09:19:54.783Z,40.00
2019-05-01T09:22:23.995Z,39.70
2019-05-01T09:24:54.459Z,39.30
2019-05-01T09:27:40.740Z,38.00
2019-05-01T09:30:28.694Z,38.30
2019-05-01T09:32:58.029Z,37.60
2019-05-01T09:35:27.214Z,37.00
2019-05-01T09:37:56.688Z,36.50
2019-05-01T09:40:25.796Z,36.00
2019-05-01T09:42:59.264Z,35.40
2019-05-01T09:45:26.362Z,36.10
2019-05-01T09:47:56.015Z,35.90
2019-05-01T09:50:25.838Z,34.90
2019-05-01T09:53:03.290Z,34.60
2019-05-01T09:55:49.237Z,33.00
2019-05-01T09:58:18.811Z,33.90
2019-05-01T10:00:48.740Z,34.30
2019-05-01T10:03:18.815Z,32.00
2019-05-01T10:05:47.845Z,33.10
2019-05-01T10:08:17.185Z,31.20
2019-05-01T10:10:46.422Z,30.00
2019-05-01T10:13:17.764Z,30.60
2019-05-01T10:15:46.446Z,29.80
2019-05-01T10:18:15.716Z,29.60
2019-05-01T10:20:44.975Z,28.80
2019-05-01T10:23:15.082Z,28.80
2019-05-01T10:25:47.928Z,28.80
2019-05-01T10:28:18.013Z,29.00
2019-05-01T10:30:49.054Z,27.90
2019-05-01T10:33:28.972Z,28.00
2019-05-01T10:36:03.967Z,27.70
2019-05-01T10:38:33.272Z,27.70
2019-05-01T10:41:04.163Z,28.10
2019-05-01T10:43:33.215Z,27.30
2019-05-01T10:46:02.687Z,27.10
2019-05-01T10:48:31.878Z,26.40
2019-05-01T10:51:01.424Z,27.00
2019-05-01T10:53:30.783Z,26.90
2019-05-01T10:55:59.810Z,27.40
2019-05-01T10:58:29.090Z,28.30
2019-05-01T11:00:59.882Z,28.00
2019-05-01T11:03:29.227Z,27.40
2019-05-01T11:05:58.476Z,26.30
2019-05-01T11:08:27.835Z,25.80
2019-05-01T11:10:57.310Z,25.20
2019-05-01T11:13:26.452Z,27.00
2019-05-01T11:15:55.751Z,25.40
2019-05-01T11:18:24.974Z,25.40
2019-05-01T11:20:54.247Z,26.30
2019-05-01T11:23:23.914Z,25.40
2019-05-01T11:25:53.323Z,25.80
2019-05-01T11:28:22.607Z,26.50
2019-05-01T11:30:51.866Z,25.80
2019-05-01T11:33:28.883Z,24.60
2019-05-01T11:36:11.986Z,26.30
2019-05-01T11:38:43.056Z,26.90
2019-05-01T11:41:14.048Z,27.10
2019-05-01T11:43:43.802Z,26.80
2019-05-01T11:46:13.103Z,26.80
2019-05-01T11:48:44.487Z,25.90
2019-05-01T11:51:12.707Z,26.10
2019-05-01T11:53:42.681Z,26.00
2019-05-01T11:56:12.781Z,26.70
2019-05-01T11:58:42.311Z,27.30
2019-05-01T12:01:13.088Z,26.90
2019-05-01T12:03:42.686Z,27.80
2019-05-01T12:06:22.342Z,26.20
2019-05-01T12:08:41.818Z,25.20
2019-05-01T12:11:12.363Z,26.10
2019-05-01T12:13:44.056Z,26.40
2019-05-01T12:16:14.436Z,24.60
2019-05-01T12:18:43.108Z,24.80
2019-05-01T12:21:12.591Z,25.00
2019-05-01T12:23:42.155Z,26.10
2019-05-01T12:26:11.705Z,25.10
2019-05-01T12:28:41.609Z,24.00
2019-05-01T12:31:10.960Z,23.70
2019-05-01T12:33:40.540Z,23.90
2019-05-01T12:36:09.952Z,24.40
2019-05-01T12:38:39.108Z,23.20
2019-05-01T12:41:26.357Z,22.90
2019-05-01T12:43:56.048Z,23.10
2019-05-01T12:46:45.072Z,22.80
2019-05-01T12:49:15.827Z,22.60
2019-05-01T12:51:46.877Z,22.30
2019-05-01T12:54:20.781Z,22.50
2019-05-01T12:57:01.124Z,22.10
2019-05-01T12:59:30.723Z,22.70
2019-05-01T13:02:00.026Z,22.70
2019-05-01T13:04:29.253Z,22.30
2019-05-01T13:06:59.480Z,22.00
2019-05-01T13:09:29.201Z,22.00
2019-05-01T13:11:58.805Z,21.10
2019-05-01T13:14:28.308Z,21.80
2019-05-01T13:16:57.567Z,21.30
2019-05-01T13:19:26.985Z,23.60
2019-05-01T13:21:56.360Z,23.80
2019-05-01T13:24:25.873Z,25.40
2019-05-01T13:27:15.040Z,25.00
2019-05-01T13:29:46.315Z,24.10
2019-05-01T13:32:26.745Z,23.50
2019-05-01T13:34:56.811Z,23.20
2019-05-01T13:37:26.075Z,22.20
2019-05-01T13:39:55.879Z,21.60
2019-05-01T13:42:25.453Z,21.30
2019-05-01T13:44:54.764Z,21.50
2019-05-01T13:47:24.072Z,21.60
2019-05-01T13:49:53.658Z,20.50
2019-05-01T13:52:23.652Z,22.00
2019-05-01T13:54:53.199Z,21.60
2019-05-01T13:57:22.644Z,21.50
2019-05-01T13:59:52.258Z,20.50
2019-05-01T14:02:21.742Z,21.20
2019-05-01T14:04:51.032Z,20.90
2019-05-01T14:07:20.497Z,20.00
2019-05-01T14:09:49.916Z,20.90
2019-05-01T14:12:19.131Z,21.80
2019-05-01T14:14:48.359Z,23.10
2019-05-01T14:17:17.758Z,22.50
2019-05-01T14:19:48.775Z,23.60
2019-05-01T14:22:19.827Z,23.80
2019-05-01T14:24:50.940Z,24.80
2019-05-01T14:27:20.578Z,26.30
2019-05-01T14:29:50.150Z,25.70
2019-05-01T14:32:19.499Z,25.40
2019-05-01T14:34:48.960Z,24.30
2019-05-01T14:37:29.114Z,24.50
2019-05-01T14:39:49.475Z,24.50
2019-05-01T14:42:19.492Z,24.80
2019-05-01T14:44:50.780Z,24.80
2019-05-01T14:47:20.412Z,24.70
2019-05-01T14:49:49.937Z,25.90
2019-05-01T14:52:19.141Z,27.00
2019-05-01T14:54:48.668Z,25.80
2019-05-01T14:57:18.180Z,24.70
2019-05-01T14:59:47.471Z,24.60
2019-05-01T15:02:17.180Z,24.60
2019-05-01T15:04:46.707Z,23.70
2019-05-01T15:07:16.025Z,24.10
2019-05-01T15:09:45.138Z,26.00
2019-05-01T15:12:14.374Z,27.30
2019-05-01T15:15:00.207Z,28.80
2019-05-01T15:17:30.797Z,29.20
2019-05-01T15:20:04.875Z,29.50
2019-05-01T15:22:34.189Z,29.60
2019-05-01T15:25:03.346Z,30.10
2019-05-01T15:27:32.567Z,31.70
2019-05-01T15:30:01.705Z,31.40
2019-05-01T15:32:30.827Z,32.20
2019-05-01T15:34:59.967Z,33.30
2019-05-01T15:37:29.212Z,34.10
2019-05-01T15:40:00.297Z,34.00
2019-05-01T15:42:31.459Z,35.10
2019-05-01T15:45:00.109Z,35.60
2019-05-01T15:47:29.330Z,36.60
2019-05-01T15:49:58.636Z,36.80
2019-05-01T15:52:27.871Z,36.50
2019-05-01T15:54:57.192Z,35.40
2019-05-01T15:57:26.589Z,35.40
2019-05-01T15:59:55.996Z,35.20
2019-05-01T16:02:25.330Z,35.50
2019-05-01T16:04:54.740Z,35.40
2019-05-01T16:07:24.455Z,37.20
2019-05-01T16:09:53.787Z,37.10
2019-05-01T16:12:30.804Z,38.20
2019-05-01T16:15:00.313Z,38.40
2019-05-01T16:17:29.824Z,37.30
2019-05-01T16:19:59.019Z,35.70
2019-05-01T16:22:28.615Z,36.00
2019-05-01T16:24:58.308Z,35.40
2019-05-01T16:27:27.785Z,35.80
2019-05-01T16:29:57.124Z,37.20
2019-05-01T16:32:26.413Z,36.30
2019-05-01T16:34:55.962Z,38.20
2019-05-01T16:37:25.240Z,37.90
2019-05-01T16:39:56.143Z,40.00
2019-05-01T16:42:26.748Z,42.40
2019-05-01T16:44:56.232Z,43.00
2019-05-01T16:47:25.780Z,41.70
2019-05-01T16:49:55.319Z,41.40
2019-05-01T16:52:26.564Z,44.80
2019-05-01T16:54:59.498Z,44.50
2019-05-01T16:57:26.651Z,43.90
2019-05-01T16:59:56.440Z,45.90
2019-05-01T17:02:33.450Z,46.30
2019-05-01T17:05:32.492Z,46.40
2019-05-01T17:08:15.497Z,45.60
2019-05-01T17:10:52.430Z,46.10
2019-05-01T17:13:21.845Z,46.10
2019-05-01T17:15:51.835Z,46.70
2019-05-01T17:18:21.246Z,46.60
2019-05-01T17:20:50.486Z,46.40
2019-05-01T17:23:20.015Z,46.80
2019-05-01T17:25:49.013Z,46.60
2019-05-01T17:28:18.347Z,47.00
2019-05-01T17:30:50.360Z,46.90
2019-05-01T17:33:20.756Z,47.90
2019-05-01T17:35:50.543Z,47.40
2019-05-01T17:38:20.221Z,47.50
2019-05-01T17:40:51.974Z,46.80
2019-05-01T17:43:20.461Z,46.70
2019-05-01T17:45:50.031Z,47.30
2019-05-01T17:48:19.416Z,46.70
2019-05-01T17:50:48.826Z,46.90
2019-05-01T17:53:18.393Z,47.30
2019-05-01T17:55:47.686Z,47.30
2019-05-01T17:58:16.903Z,48.20
2019-05-01T18:00:47.600Z,48.50
2019-05-01T18:03:21.497Z,49.20
2019-05-01T18:06:10.883Z,46.70
2019-05-01T18:08:40.377Z,45.90
2019-05-01T18:11:14.146Z,45.10
2019-05-01T18:13:41.078Z,44.80
2019-05-01T18:16:10.511Z,44.30
2019-05-01T18:18:40.224Z,44.40
2019-05-01T18:21:11.290Z,44.70
2019-05-01T18:24:01.404Z,44.80
2019-05-01T18:26:32.112Z,45.00
2019-05-01T18:29:15.732Z,45.00
2019-05-01T18:31:44.997Z,45.60
2019-05-01T18:34:14.620Z,45.90
2019-05-01T18:37:02.099Z,46.60
2019-05-01T18:39:33.087Z,46.70
2019-05-01T18:42:04.380Z,46.90
2019-05-01T18:44:34.053Z,47.30
2019-05-01T18:47:03.461Z,47.20
2019-05-01T18:49:33.207Z,48.40
2019-05-01T18:52:02.758Z,49.00
2019-05-01T18:54:35.132Z,49.50
2019-05-01T18:57:03.230Z,49.80
2019-05-01T18:59:33.067Z,50.10
2019-05-01T19:02:02.716Z,50.20
2019-05-01T19:04:32.473Z,50.60
2019-05-01T19:07:02.151Z,51.10
2019-05-01T19:09:31.584Z,51.70
2019-05-01T19:12:00.738Z,51.50
2019-05-01T19:14:30.868Z,51.30
2019-05-01T19:17:00.634Z,51.40
2019-05-01T19:19:29.600Z,51.40
2019-05-01T19:21:58.483Z,51.50
2019-05-01T19:24:27.291Z,51.50
2019-05-01T19:26:55.953Z,52.10
2019-05-01T19:29:26.860Z,53.10
2019-05-01T19:31:57.220Z,52.80
2019-05-01T19:34:25.888Z,52.70
2019-05-01T19:36:54.650Z,52.80
2019-05-01T19:39:23.424Z,53.40
2019-05-01T19:41:54.591Z,54.00
2019-05-01T19:44:22.730Z,54.30
2019-05-01T19:46:54.938Z,54.30
2019-05-01T19:49:24.734Z,54.00
2019-05-01T19:51:55.450Z,53.90
2019-05-01T19:54:28.097Z,54.10
2019-05-01T19:56:55.349Z,54.20
2019-05-01T19:59:24.203Z,54.80
2019-05-01T20:01:52.878Z,55.20
2019-05-01T20:04:22.023Z,55.50
2019-05-01T20:06:50.872Z,55.80
2019-05-01T20:09:20.144Z,56.10
2019-05-01T20:11:49.160Z,56.60
2019-05-01T20:14:18.086Z,57.10
2019-05-01T20:16:47.064Z,57.30
2019-05-01T20:19:15.894Z,57.60
2019-05-01T20:21:44.861Z,57.40
2019-05-01T20:24:13.898Z,57.30
2019-05-01T20:26:42.617Z,57.60
2019-05-01T20:29:11.473Z,57.70
2019-05-01T20:31:40.405Z,58.00
2019-05-01T20:34:11.966Z,58.10
2019-05-01T20:36:39.815Z,58.10
2019-05-01T20:39:08.790Z,58.20
2019-05-01T20:41:37.568Z,58.10
2019-05-01T20:44:06.477Z,58.20
2019-05-01T20:46:35.279Z,58.10
2019-05-01T20:49:06.509Z,58.10
2019-05-01T20:51:34.399Z,58.10
2019-05-01T20:54:03.608Z,58.30
2019-05-01T20:56:33.967Z,58.70
2019-05-01T20:59:04.939Z,58.50
2019-05-01T21:01:33.539Z,58.60
2019-05-01T21:04:03.885Z,58.20
2019-05-01T21:06:34.276Z,58.10
2019-05-01T21:09:08.174Z,58.20
2019-05-01T21:11:36.463Z,58.80
2019-05-01T21:14:19.861Z,59.40
2019-05-01T21:16:38.070Z,59.90
2019-05-01T21:19:06.200Z,61.00
2019-05-01T21:21:34.920Z,61.50
2019-05-01T21:24:04.026Z,62.20
2019-05-01T21:26:33.586Z,62.70
2019-05-01T21:29:04.087Z,63.40
2019-05-01T21:31:34.131Z,63.70
2019-05-01T21:34:04.252Z,64.30
2019-05-01T21:36:33.147Z,65.00
2019-05-01T21:39:01.932Z,65.70
2019-05-01T21:41:32.790Z,65.70
2019-05-01T21:44:03.050Z,65.20
2019-05-01T21:46:31.552Z,64.90
2019-05-01T21:49:00.236Z,65.40
2019-05-01T21:51:28.950Z,65.80
2019-05-01T21:53:57.916Z,66.10
2019-05-01T21:56:26.600Z,66.30
2019-05-01T21:58:59.531Z,66.80
2019-05-01T22:01:25.805Z,67.50
2019-05-01T22:03:57.106Z,68.10
2019-05-01T22:06:25.830Z,68.30
2019-05-01T22:08:54.910Z,68.60
2019-05-01T22:11:23.615Z,68.70
2019-05-01T22:13:55.091Z,69.10
2019-05-01T22:16:24.610Z,69.50
2019-05-01T22:19:06.876Z,69.80
2019-05-01T22:21:52.388Z,70.30
2019-05-01T22:24:39.234Z,70.70
2019-05-01T22:27:12.903Z,70.90
2019-05-01T22:29:43.233Z,71.30
2019-05-01T22:32:27.769Z,71.70
2019-05-01T22:35:03.621Z,72.10
2019-05-01T22:37:32.865Z,72.10
2019-05-01T22:40:04.393Z,72.60
2019-05-01T22:42:33.309Z,72.10
2019-05-01T22:45:02.072Z,72.20
2019-05-01T22:47:31.117Z,72.10
2019-05-01T22:49:59.967Z,71.40
2019-05-01T22:52:28.702Z,72.10
2019-05-01T22:54:57.898Z,72.30
2019-05-01T22:57:26.639Z,72.00
2019-05-01T22:59:55.521Z,72.40
2019-05-01T23:02:42.737Z,72.40
2019-05-01T23:05:11.842Z,72.10
2019-05-01T23:07:40.759Z,72.00
2019-05-01T23:10:10.071Z,71.90
2019-05-01T23:12:38.861Z,71.40
2019-05-01T23:15:12.359Z,71.70
2019-05-01T23:17:46.187Z,72.10
2019-05-01T23:20:16.394Z,72.00
2019-05-01T23:22:45.265Z,72.10
2019-05-01T23:25:14.740Z,72.00
2019-05-01T23:27:43.615Z,71.60
2019-05-01T23:30:16.375Z,71.70
2019-05-01T23:32:45.866Z,72.10
2019-05-01T23:35:14.881Z,72.30
2019-05-01T23:37:43.624Z,72.50
2019-05-01T23:40:15.474Z,72.80
2019-05-01T23:42:51.997Z,72.60
2019-05-01T23:45:14.452Z,72.90
2019-05-01T23:47:43.909Z,73.10
2019-05-01T23:50:13.761Z,73.80
2019-05-01T23:52:42.568Z,73.50
2019-05-01T23:55:11.525Z,73.20
2019-05-01T23:57:40.346Z,73.10
